Time;durP1;ratioP1;P1;durP2;ratioP2;P2;SDS_P1;SDS_P2;PMS_P1;PMS_P2;Temp;Humidity;BMP_temperature;BMP_pressure;BME280_temperature;BME280_humidity;BME280_pressure;Samples;Min_cycle;Max_cycle;Signal;HPM_P1;HPM_P2
2023/04/29 00:00:26;;;;;;;13.17;7.70;;;;;;;;;;5029523;28;20445;-65
2023/04/29 00:02:53;;;;;;;11.57;7.37;;;;;;;;;;5029448;28;20829;-65
2023/04/29 00:05:20;;;;;;;13.20;7.37;;;;;;;;;;5028797;28;20472;-66
2023/04/29 00:07:47;;;;;;;11.23;6.90;;;;;;;;;;5029021;28;20333;-66
2023/04/29 00:10:14;;;;;;;11.47;6.80;;;;;;;;;;5028963;28;20196;-65
2023/04/29 00:12:41;;;;;;;12.03;6.90;;;;;;;;;;5029716;28;20457;-65
2023/04/29 00:15:08;;;;;;;12.07;6.43;;;;;;;;;;5029878;28;20202;-65
2023/04/29 00:17:35;;;;;;;13.17;7.37;;;;;;;;;;5028410;28;20450;-65
2023/04/29 00:20:02;;;;;;;12.80;7.40;;;;;;;;;;5028257;28;20477;-65
2023/04/29 00:22:29;;;;;;;13.70;7.20;;;;;;;;;;5029355;28;20497;-65
2023/04/29 00:24:56;;;;;;;10.83;6.67;;;;;;;;;;5029330;28;20520;-65
2023/04/29 00:27:22;;;;;;;11.37;7.43;;;;;;;;;;5029416;28;20915;-65
2023/04/29 00:29:50;;;;;;;13.47;7.17;;;;;;;;;;5028867;28;20568;-65
2023/04/29 00:32:17;;;;;;;10.83;6.83;;;;;;;;;;5029740;28;21161;-65
2023/04/29 00:34:44;;;;;;;10.77;6.77;;;;;;;;;;5012152;28;20530;-65
2023/04/29 00:37:11;;;;;;;10.80;7.13;;;;;;;;;;5020638;28;20449;-66
2023/04/29 00:39:38;;;;;;;10.90;6.60;;;;;;;;;;5011331;28;20449;-65
2023/04/29 00:42:05;;;;;;;13.03;6.83;;;;;;;;;;5011205;28;20206;-65
2023/04/29 00:44:32;;;;;;;10.43;6.20;;;;;;;;;;5028919;28;20286;-65
2023/04/29 00:46:59;;;;;;;11.00;6.57;;;;;;;;;;5028465;28;21046;-66
2023/04/29 00:49:26;;;;;;;11.03;7.07;;;;;;;;;;5010810;28;20619;-65
2023/04/29 00:51:53;;;;;;;11.57;6.70;;;;;;;;;;5028678;28;20191;-66
2023/04/29 00:54:21;;;;;;;9.87;6.60;;;;;;;;;;5001119;28;20438;-65
2023/04/29 00:56:48;;;;;;;9.67;6.93;;;;;;;;;;5011117;28;20971;-65
2023/04/29 00:59:16;;;;;;;12.57;7.17;;;;;;;;;;4993654;28;20461;-65
2023/04/29 01:01:43;;;;;;;11.07;7.00;;;;;;;;;;5029187;28;20481;-65
2023/04/29 01:04:12;;;;;;;13.87;7.37;;;;;;;;;;5010739;28;20900;-65
2023/04/29 01:06:48;;;;;;;10.60;6.47;;;;;;;;;;5009807;28;20896;-65
2023/04/29 01:09:26;;;;;;;13.00;7.13;;;;;;;;;;5025456;28;20453;-65
2023/04/29 01:12:12;;;;;;;12.73;7.30;;;;;;;;;;5026136;28;20529;-66
2023/04/29 01:14:38;;;;;;;12.07;7.27;;;;;;;;;;5011113;28;20468;-65
2023/04/29 01:17:09;;;;;;;12.07;6.43;;;;;;;;;;4994931;28;20449;-65
2023/04/29 01:19:45;;;;;;;11.43;6.90;;;;;;;;;;5010727;28;22303;-66
2023/04/29 01:22:13;;;;;;;13.13;7.00;;;;;;;;;;5010758;28;21299;-65
2023/04/29 01:24:40;;;;;;;11.27;7.03;;;;;;;;;;5011579;28;20446;-65
2023/04/29 01:27:23;;;;;;;11.07;6.63;;;;;;;;;;5027594;28;20479;-65
2023/04/29 01:30:12;;;;;;;10.87;6.30;;;;;;;;;;5013606;28;20529;-65
2023/04/29 01:32:41;;;;;;;13.77;6.90;;;;;;;;;;5028257;28;20520;-66
2023/04/29 01:35:11;;;;;;;12.00;6.60;;;;;;;;;;5010018;28;21024;-65
2023/04/29 01:37:48;;;;;;;11.90;7.07;;;;;;;;;;5010629;28;20485;-65
2023/04/29 01:40:18;;;;;;;9.83;6.17;;;;;;;;;;5009889;28;20539;-65
2023/04/29 02:15:28;;;;;;;10.43;5.80;;;;;;;;;;4756963;28;20818;-66
2023/04/29 02:17:57;;;;;;;9.17;5.90;;;;;;;;;;4990530;28;20444;-65
2023/04/29 02:20:24;;;;;;;8.83;6.33;;;;;;;;;;5004936;28;20477;-65
2023/04/29 02:22:51;;;;;;;10.60;6.33;;;;;;;;;;5000310;28;21233;-65
2023/04/29 02:25:19;;;;;;;9.53;5.57;;;;;;;;;;5021541;28;20466;-65
2023/04/29 02:27:45;;;;;;;11.27;5.50;;;;;;;;;;5009560;28;20462;-66
2023/04/29 02:30:12;;;;;;;7.47;5.50;;;;;;;;;;5009485;28;20191;-65
2023/04/29 02:32:40;;;;;;;8.13;5.80;;;;;;;;;;5008902;28;20493;-65
2023/04/29 02:35:07;;;;;;;10.17;5.50;;;;;;;;;;5009516;28;20510;-65
2023/04/29 02:37:34;;;;;;;9.60;6.07;;;;;;;;;;5009482;28;20469;-66
2023/04/29 02:40:02;;;;;;;9.87;5.57;;;;;;;;;;5027045;28;20973;-65
2023/04/29 02:42:29;;;;;;;13.33;5.80;;;;;;;;;;5009958;28;20480;-65
2023/04/29 02:44:56;;;;;;;9.70;5.53;;;;;;;;;;5027099;28;20473;-66
2023/04/29 02:47:24;;;;;;;9.50;5.97;;;;;;;;;;5025576;28;20225;-66
2023/04/29 02:49:50;;;;;;;9.27;5.80;;;;;;;;;;5024872;28;20452;-65
2023/04/29 02:52:18;;;;;;;11.50;6.30;;;;;;;;;;5027891;28;20188;-65
2023/04/29 02:54:46;;;;;;;10.60;6.50;;;;;;;;;;5000117;28;20462;-65
2023/04/29 02:57:13;;;;;;;11.90;6.57;;;;;;;;;;5007759;28;20489;-66
2023/04/29 02:59:40;;;;;;;10.73;6.00;;;;;;;;;;5027363;28;20442;-65
2023/04/29 03:02:06;;;;;;;8.50;5.70;;;;;;;;;;5008874;28;20515;-65
2023/04/29 03:04:33;;;;;;;8.93;6.13;;;;;;;;;;5005770;28;20486;-65
2023/04/29 03:07:00;;;;;;;8.93;6.90;;;;;;;;;;5009880;28;20985;-66
2023/04/29 03:09:27;;;;;;;9.47;6.00;;;;;;;;;;5005329;28;20458;-66
2023/04/29 03:11:54;;;;;;;10.93;6.40;;;;;;;;;;5009645;28;20445;-65
2023/04/29 03:14:21;;;;;;;10.57;6.40;;;;;;;;;;5026173;28;20957;-65
2023/04/29 03:16:48;;;;;;;9.97;6.30;;;;;;;;;;5009649;28;21058;-66
2023/04/29 03:19:16;;;;;;;8.70;6.00;;;;;;;;;;5007960;28;20953;-66
2023/04/29 03:21:44;;;;;;;11.60;6.20;;;;;;;;;;5010963;28;20442;-66
2023/04/29 03:24:11;;;;;;;9.83;6.33;;;;;;;;;;5030084;28;20591;-66
2023/04/29 03:26:38;;;;;;;8.53;5.47;;;;;;;;;;5031489;28;20218;-66
2023/04/29 03:29:05;;;;;;;9.47;6.13;;;;;;;;;;5008026;28;20208;-66
2023/04/29 03:31:33;;;;;;;9.40;5.80;;;;;;;;;;5008722;28;20203;-66
2023/04/29 03:33:59;;;;;;;10.50;5.93;;;;;;;;;;5012765;28;20441;-66
2023/04/29 03:36:26;;;;;;;9.57;6.20;;;;;;;;;;5005468;28;20204;-66
2023/04/29 03:39:00;;;;;;;11.90;6.40;;;;;;;;;;5008210;28;20553;-66
2023/04/29 03:41:28;;;;;;;9.30;6.00;;;;;;;;;;5012629;28;20277;-65
2023/04/29 03:43:59;;;;;;;8.20;5.60;;;;;;;;;;5012366;28;20291;-65
2023/04/29 03:46:27;;;;;;;10.13;6.30;;;;;;;;;;5012975;28;20254;-67
2023/04/29 03:48:57;;;;;;;11.03;6.70;;;;;;;;;;4999165;28;20446;-67
2023/04/29 03:51:25;;;;;;;9.77;6.27;;;;;;;;;;5027236;28;20832;-67
2023/04/29 03:54:00;;;;;;;11.53;6.40;;;;;;;;;;5005163;28;20582;-66
2023/04/29 03:56:29;;;;;;;12.63;6.80;;;;;;;;;;5007467;28;20227;-67
2023/04/29 03:58:55;;;;;;;11.57;6.90;;;;;;;;;;4994842;28;20203;-66
2023/04/29 04:01:24;;;;;;;9.80;6.23;;;;;;;;;;4990403;28;20296;-66
2023/04/29 04:03:52;;;;;;;12.20;6.30;;;;;;;;;;5007918;28;20191;-67
2023/04/29 04:06:19;;;;;;;11.13;6.47;;;;;;;;;;5006066;28;20235;-67
2023/04/29 04:08:47;;;;;;;9.77;6.63;;;;;;;;;;4993098;28;20207;-68
2023/04/29 04:11:23;;;;;;;10.07;7.03;;;;;;;;;;5007298;28;20218;-67
2023/04/29 04:13:56;;;;;;;11.20;6.93;;;;;;;;;;5007409;28;20199;-67
2023/04/29 04:16:23;;;;;;;9.70;6.60;;;;;;;;;;5026364;28;20219;-67
2023/04/29 04:18:51;;;;;;;11.03;6.80;;;;;;;;;;5006729;28;20210;-67
2023/04/29 04:21:17;;;;;;;11.10;6.40;;;;;;;;;;5027583;28;20191;-67
2023/04/29 04:23:52;;;;;;;10.90;6.50;;;;;;;;;;5007584;28;20191;-68
2023/04/29 04:26:21;;;;;;;12.60;6.53;;;;;;;;;;5007111;28;20231;-69
2023/04/29 04:29:18;;;;;;;9.27;6.13;;;;;;;;;;4990498;28;20551;-69
2023/04/29 04:31:55;;;;;;;10.43;6.30;;;;;;;;;;5001105;28;20199;-67
2023/04/29 04:34:23;;;;;;;11.23;6.93;;;;;;;;;;5008310;28;20204;-67
2023/04/29 04:36:51;;;;;;;12.13;7.20;;;;;;;;;;5008338;28;20327;-68
2023/04/29 04:39:18;;;;;;;9.53;6.57;;;;;;;;;;5008977;28;20350;-67
2023/04/29 04:41:45;;;;;;;10.97;6.60;;;;;;;;;;5004198;28;20224;-69
2023/04/29 04:44:12;;;;;;;9.70;6.67;;;;;;;;;;4994384;28;20231;-66
2023/04/29 04:47:02;;;;;;;8.60;6.60;;;;;;;;;;5018631;28;20222;-67
2023/04/29 04:49:39;;;;;;;10.10;6.60;;;;;;;;;;4991633;28;20247;-68
2023/04/29 04:52:06;;;;;;;14.77;7.33;;;;;;;;;;5009284;28;20203;-68
2023/04/29 04:54:34;;;;;;;12.13;6.80;;;;;;;;;;5008637;28;20230;-67
2023/04/29 04:57:15;;;;;;;12.13;6.60;;;;;;;;;;5005712;28;20290;-67
2023/04/29 04:59:44;;;;;;;8.60;5.77;;;;;;;;;;5003264;28;20192;-69
2023/04/29 05:02:11;;;;;;;10.17;6.07;;;;;;;;;;4994182;28;20192;-68
2023/04/29 05:04:37;;;;;;;11.87;6.67;;;;;;;;;;5021861;28;20203;-69
2023/04/29 05:07:04;;;;;;;12.07;6.50;;;;;;;;;;4984231;28;20831;-67
2023/04/29 05:09:47;;;;;;;9.80;6.37;;;;;;;;;;5009494;28;20195;-68
2023/04/29 05:12:15;;;;;;;11.63;6.50;;;;;;;;;;5003894;28;20223;-68
2023/04/29 05:14:41;;;;;;;10.17;5.97;;;;;;;;;;5012609;28;20191;-69
2023/04/29 05:17:09;;;;;;;10.20;6.43;;;;;;;;;;5007480;28;20281;-68
2023/04/29 05:19:36;;;;;;;9.97;6.07;;;;;;;;;;5006791;28;20705;-69
2023/04/29 05:22:03;;;;;;;9.47;5.90;;;;;;;;;;5001058;28;20326;-67
2023/04/29 05:24:29;;;;;;;9.70;5.97;;;;;;;;;;5007352;28;20222;-69
2023/04/29 05:26:56;;;;;;;13.53;6.03;;;;;;;;;;4990473;28;21458;-69
2023/04/29 05:29:23;;;;;;;11.20;5.97;;;;;;;;;;5006454;28;20188;-69
2023/04/29 05:31:56;;;;;;;11.47;5.73;;;;;;;;;;5007497;28;20230;-68
2023/04/29 05:34:23;;;;;;;11.63;5.93;;;;;;;;;;5005101;28;20841;-67
2023/04/29 05:36:51;;;;;;;11.77;6.47;;;;;;;;;;5007693;28;20192;-68
2023/04/29 05:39:18;;;;;;;7.10;5.13;;;;;;;;;;4989786;28;20192;-68
2023/04/29 05:41:57;;;;;;;9.70;6.33;;;;;;;;;;5007516;28;20225;-69
2023/04/29 05:44:35;;;;;;;12.10;5.83;;;;;;;;;;4996875;28;20303;-69
2023/04/29 05:47:04;;;;;;;10.00;6.50;;;;;;;;;;5005821;28;20277;-70
2023/04/29 05:49:31;;;;;;;11.47;5.80;;;;;;;;;;4986524;28;20232;-63
2023/04/29 05:52:02;;;;;;;9.77;5.67;;;;;;;;;;4988848;28;20235;-64
2023/04/29 05:54:30;;;;;;;11.30;6.13;;;;;;;;;;5001749;28;20282;-64
2023/04/29 05:56:56;;;;;;;7.93;6.20;;;;;;;;;;5005858;28;20230;-63
2023/04/29 05:59:23;;;;;;;9.43;6.43;;;;;;;;;;5004752;28;20868;-63
2023/04/29 06:01:52;;;;;;;12.07;6.53;;;;;;;;;;5001586;28;20257;-63
2023/04/29 06:04:20;;;;;;;10.50;6.17;;;;;;;;;;5006496;28;20610;-64
2023/04/29 06:07:06;;;;;;;13.70;6.57;;;;;;;;;;5024783;28;20337;-64
2023/04/29 06:09:52;;;;;;;11.50;7.40;;;;;;;;;;5027251;28;20306;-64
2023/04/29 06:12:20;;;;;;;12.00;7.00;;;;;;;;;;4993293;28;20199;-64
2023/04/29 06:14:47;;;;;;;10.10;6.77;;;;;;;;;;5009110;28;20198;-64
2023/04/29 06:17:14;;;;;;;11.63;7.37;;;;;;;;;;5010098;28;20921;-64
2023/04/29 06:19:41;;;;;;;14.80;7.87;;;;;;;;;;5008691;28;20195;-64
2023/04/29 06:22:08;;;;;;;14.23;7.60;;;;;;;;;;5011183;28;20544;-63
2023/04/29 06:24:38;;;;;;;14.50;7.70;;;;;;;;;;5009339;28;20195;-64
2023/04/29 06:27:05;;;;;;;14.07;8.00;;;;;;;;;;5009227;28;20770;-64
2023/04/29 06:29:32;;;;;;;11.53;8.30;;;;;;;;;;5009178;28;20187;-64
2023/04/29 06:31:59;;;;;;;10.80;7.30;;;;;;;;;;5025746;28;20272;-63
2023/04/29 06:34:26;;;;;;;13.37;7.70;;;;;;;;;;5007829;28;20594;-65
2023/04/29 06:37:11;;;;;;;11.63;8.03;;;;;;;;;;5025154;28;20285;-63
2023/04/29 06:39:52;;;;;;;13.47;8.13;;;;;;;;;;5004560;28;20187;-64
2023/04/29 06:42:38;;;;;;;14.97;8.53;;;;;;;;;;5026489;28;20198;-64
2023/04/29 06:45:31;;;;;;;14.57;7.70;;;;;;;;;;5008984;28;20206;-64
2023/04/29 06:48:13;;;;;;;13.17;8.50;;;;;;;;;;5009167;28;20255;-64
2023/04/29 06:50:53;;;;;;;15.07;8.70;;;;;;;;;;4994760;28;20238;-64
2023/04/29 06:53:20;;;;;;;12.90;8.97;;;;;;;;;;5007914;28;20218;-66
2023/04/29 06:55:47;;;;;;;13.57;9.13;;;;;;;;;;5008055;28;20208;-64
2023/04/29 06:58:14;;;;;;;12.70;8.97;;;;;;;;;;5032205;28;20734;-64
2023/04/29 07:00:46;;;;;;;16.00;9.40;;;;;;;;;;5028890;28;20278;-64
2023/04/29 07:03:13;;;;;;;15.20;9.70;;;;;;;;;;5008014;28;20338;-64
2023/04/29 07:05:40;;;;;;;16.10;9.43;;;;;;;;;;5022057;28;20410;-65
2023/04/29 07:08:09;;;;;;;12.63;8.00;;;;;;;;;;5031442;28;20226;-65
2023/04/29 07:10:35;;;;;;;15.27;8.73;;;;;;;;;;5013174;28;20207;-66
2023/04/29 07:13:02;;;;;;;13.53;9.10;;;;;;;;;;5031543;28;20199;-65
2023/04/29 07:15:32;;;;;;;15.70;9.03;;;;;;;;;;5018980;28;20597;-66
2023/04/29 07:18:02;;;;;;;12.47;8.50;;;;;;;;;;5029015;28;20194;-66
2023/04/29 07:20:29;;;;;;;14.03;9.17;;;;;;;;;;5020248;28;20875;-65
2023/04/29 07:22:56;;;;;;;15.83;9.20;;;;;;;;;;5011210;28;20191;-66
2023/04/29 07:25:24;;;;;;;13.50;9.47;;;;;;;;;;5007365;28;20195;-64
2023/04/29 07:27:51;;;;;;;13.90;9.33;;;;;;;;;;5012410;28;20714;-65
2023/04/29 07:30:18;;;;;;;13.57;9.67;;;;;;;;;;5030665;28;20194;-65
2023/04/29 07:32:45;;;;;;;15.60;9.83;;;;;;;;;;5012737;28;20201;-65
2023/04/29 07:35:11;;;;;;;13.97;9.43;;;;;;;;;;5028121;28;20187;-63
2023/04/29 07:37:40;;;;;;;15.30;9.27;;;;;;;;;;5011528;28;20914;-66
2023/04/29 07:40:12;;;;;;;12.73;9.00;;;;;;;;;;5011593;28;20257;-65
2023/04/29 07:42:41;;;;;;;11.77;8.90;;;;;;;;;;5011723;28;20293;-65
2023/04/29 07:45:08;;;;;;;12.57;8.60;;;;;;;;;;5011371;28;20222;-66
2023/04/29 07:47:35;;;;;;;13.60;9.30;;;;;;;;;;5012124;28;21087;-66
2023/04/29 07:50:03;;;;;;;10.97;8.40;;;;;;;;;;5010077;28;20191;-66
2023/04/29 07:52:30;;;;;;;14.13;9.20;;;;;;;;;;5025915;28;20306;-66
2023/04/29 07:54:56;;;;;;;11.87;9.03;;;;;;;;;;5026001;28;20740;-65
2023/04/29 07:57:24;;;;;;;13.17;9.43;;;;;;;;;;5009595;28;20196;-65
2023/04/29 07:59:53;;;;;;;15.87;9.33;;;;;;;;;;5004292;28;20754;-65
2023/04/29 08:02:20;;;;;;;15.40;8.90;;;;;;;;;;5005214;28;20824;-65
2023/04/29 08:04:49;;;;;;;20.90;9.60;;;;;;;;;;4993249;28;20270;-65
2023/04/29 08:07:17;;;;;;;13.20;9.33;;;;;;;;;;5012244;28;20839;-65
2023/04/29 08:09:44;;;;;;;15.33;9.47;;;;;;;;;;5028160;28;20215;-65
2023/04/29 08:12:12;;;;;;;13.27;8.90;;;;;;;;;;5004282;28;20310;-66
2023/04/29 08:14:39;;;;;;;15.13;9.57;;;;;;;;;;5031267;28;20222;-65
2023/04/29 08:17:07;;;;;;;16.37;10.03;;;;;;;;;;5011182;28;20231;-64
2023/04/29 08:19:34;;;;;;;15.33;10.17;;;;;;;;;;5012817;28;20254;-64
2023/04/29 08:22:03;;;;;;;14.77;9.73;;;;;;;;;;5012702;28;20299;-64
2023/04/29 08:24:30;;;;;;;15.27;9.63;;;;;;;;;;5012814;28;20190;-65
2023/04/29 08:26:58;;;;;;;13.53;9.27;;;;;;;;;;5001622;28;20203;-64
2023/04/29 08:29:24;;;;;;;13.33;9.20;;;;;;;;;;5011713;28;20188;-65
2023/04/29 08:31:52;;;;;;;14.60;9.10;;;;;;;;;;5012422;28;20199;-66
2023/04/29 08:34:19;;;;;;;12.87;9.10;;;;;;;;;;4995175;28;20246;-66
2023/04/29 08:36:46;;;;;;;15.63;9.27;;;;;;;;;;5007075;28;20595;-66
2023/04/29 08:39:13;;;;;;;13.30;9.10;;;;;;;;;;5004940;28;20659;-66
2023/04/29 08:41:44;;;;;;;13.57;9.07;;;;;;;;;;5003530;28;20236;-67
2023/04/29 08:44:11;;;;;;;17.43;8.57;;;;;;;;;;5006894;28;20208;-65
2023/04/29 08:46:37;;;;;;;15.63;9.87;;;;;;;;;;5008007;28;20299;-67
2023/04/29 08:49:04;;;;;;;15.47;9.87;;;;;;;;;;5004376;28;20189;-67
2023/04/29 08:51:33;;;;;;;13.77;9.80;;;;;;;;;;5007533;28;20196;-65
2023/04/29 08:54:00;;;;;;;13.20;9.73;;;;;;;;;;5003477;28;20227;-66
2023/04/29 08:56:27;;;;;;;15.70;9.53;;;;;;;;;;5005328;28;20211;-67
2023/04/29 08:58:55;;;;;;;17.10;10.00;;;;;;;;;;5005537;28;20246;-66
2023/04/29 09:01:22;;;;;;;15.77;10.53;;;;;;;;;;5002812;28;20191;-67
2023/04/29 09:03:53;;;;;;;15.70;9.60;;;;;;;;;;5006406;28;20180;-66
2023/04/29 09:06:21;;;;;;;16.67;9.93;;;;;;;;;;4994652;28;20274;-67
2023/04/29 09:08:47;;;;;;;16.33;9.90;;;;;;;;;;5005757;28;20552;-66
2023/04/29 09:11:15;;;;;;;13.37;9.37;;;;;;;;;;5008113;28;20291;-66
2023/04/29 09:13:42;;;;;;;15.80;10.30;;;;;;;;;;5004132;28;20196;-68
2023/04/29 09:16:10;;;;;;;16.43;10.07;;;;;;;;;;5003021;28;20232;-65
2023/04/29 09:18:47;;;;;;;13.83;9.77;;;;;;;;;;4998836;28;20200;-65
2023/04/29 09:21:21;;;;;;;16.13;10.03;;;;;;;;;;5008451;28;20278;-65
2023/04/29 09:23:49;;;;;;;13.10;10.13;;;;;;;;;;5005238;28;20686;-59
2023/04/29 09:26:18;;;;;;;15.10;9.63;;;;;;;;;;5010138;28;20184;-59
2023/04/29 09:28:46;;;;;;;14.40;10.17;;;;;;;;;;5011717;28;20220;-59
2023/04/29 09:31:14;;;;;;;15.43;9.87;;;;;;;;;;5010040;28;20192;-58
2023/04/29 09:33:48;;;;;;;14.47;10.60;;;;;;;;;;5011796;28;20220;-57
2023/04/29 09:36:32;;;;;;;17.13;10.53;;;;;;;;;;5003131;28;20196;-57
2023/04/29 09:39:00;;;;;;;21.53;10.47;;;;;;;;;;5007585;28;20203;-57
2023/04/29 09:41:27;;;;;;;24.50;10.43;;;;;;;;;;5010526;28;20202;-58
2023/04/29 09:44:05;;;;;;;13.97;10.40;;;;;;;;;;5010425;28;20653;-57
2023/04/29 09:46:33;;;;;;;18.27;9.93;;;;;;;;;;5011350;28;20238;-57
2023/04/29 09:49:00;;;;;;;15.80;10.00;;;;;;;;;;5011058;28;20215;-57
2023/04/29 09:51:31;;;;;;;18.03;11.30;;;;;;;;;;5003742;28;20607;-58
2023/04/29 09:54:00;;;;;;;15.40;10.30;;;;;;;;;;5010330;28;20544;-57
2023/04/29 09:56:29;;;;;;;20.90;9.63;;;;;;;;;;5011537;28;20638;-59
2023/04/29 09:58:57;;;;;;;17.23;9.77;;;;;;;;;;4997580;28;20647;-57
2023/04/29 10:01:30;;;;;;;15.97;9.67;;;;;;;;;;5002867;28;20196;-57
2023/04/29 10:03:57;;;;;;;23.97;10.17;;;;;;;;;;5008533;28;20204;-57
2023/04/29 10:06:24;;;;;;;25.80;10.37;;;;;;;;;;4987086;28;20211;-57
2023/04/29 10:08:51;;;;;;;18.77;10.73;;;;;;;;;;5003396;28;20201;-57
2023/04/29 10:11:18;;;;;;;15.83;10.23;;;;;;;;;;4986591;28;20196;-57
2023/04/29 10:13:45;;;;;;;16.93;10.57;;;;;;;;;;5004944;28;20188;-56
2023/04/29 10:16:12;;;;;;;16.83;11.13;;;;;;;;;;4999304;28;20787;-57
2023/04/29 10:18:40;;;;;;;20.03;10.83;;;;;;;;;;5007877;28;20196;-57
2023/04/29 10:21:10;;;;;;;19.70;11.60;;;;;;;;;;4984951;28;20216;-56
2023/04/29 10:23:37;;;;;;;16.57;11.93;;;;;;;;;;4998940;28;20526;-56
2023/04/29 10:26:04;;;;;;;18.53;11.57;;;;;;;;;;4963627;28;20200;-57
2023/04/29 10:28:31;;;;;;;16.60;11.17;;;;;;;;;;4984172;28;20247;-57
2023/04/29 10:30:59;;;;;;;14.80;11.43;;;;;;;;;;4992105;28;20279;-56
2023/04/29 10:33:27;;;;;;;17.33;11.83;;;;;;;;;;4983036;28;20200;-57
2023/04/29 10:35:59;;;;;;;14.60;11.03;;;;;;;;;;4983350;28;20694;-57
2023/04/29 10:38:36;;;;;;;39.07;11.70;;;;;;;;;;4991528;28;20189;-57
2023/04/29 10:41:07;;;;;;;419.73;38.33;;;;;;;;;;4986906;28;20682;-57
2023/04/29 10:43:35;;;;;;;598.33;55.10;;;;;;;;;;4981987;28;20193;-58
2023/04/29 10:46:17;;;;;;;33.53;12.83;;;;;;;;;;5000288;28;20187;-57
2023/04/29 10:48:45;;;;;;;35.33;12.43;;;;;;;;;;4991695;28;20212;-56
2023/04/29 10:51:13;;;;;;;19.80;11.23;;;;;;;;;;4984354;28;20208;-55
2023/04/29 10:53:59;;;;;;;54.13;13.40;;;;;;;;;;4997612;28;20215;-56
2023/04/29 10:56:38;;;;;;;17.67;12.17;;;;;;;;;;4994359;28;20201;-56
2023/04/29 10:59:10;;;;;;;21.93;11.40;;;;;;;;;;4991616;28;20598;-59
2023/04/29 11:01:44;;;;;;;14.20;10.77;;;;;;;;;;5017171;28;20307;-56
2023/04/29 11:04:12;;;;;;;15.63;10.53;;;;;;;;;;5013453;28;20195;-57
2023/04/29 11:06:40;;;;;;;14.33;11.13;;;;;;;;;;5016221;28;20663;-56
2023/04/29 11:09:21;;;;;;;15.07;9.47;;;;;;;;;;5022162;28;20219;-57
2023/04/29 11:11:54;;;;;;;13.07;9.87;;;;;;;;;;5018098;28;20195;-56
2023/04/29 11:14:25;;;;;;;14.60;9.57;;;;;;;;;;4996643;28;20209;-56
2023/04/29 11:16:52;;;;;;;17.87;9.33;;;;;;;;;;5023200;28;20277;-56
2023/04/29 11:19:20;;;;;;;15.10;10.10;;;;;;;;;;5004920;28;20214;-58
2023/04/29 11:21:47;;;;;;;32.70;11.70;;;;;;;;;;4999177;28;20203;-57
2023/04/29 11:24:18;;;;;;;16.70;10.37;;;;;;;;;;4979797;28;20262;-58
2023/04/29 11:26:47;;;;;;;12.90;9.87;;;;;;;;;;5007161;28;20286;-60
2023/04/29 11:29:14;;;;;;;18.67;11.23;;;;;;;;;;5005442;28;20250;-59
2023/04/29 11:31:45;;;;;;;66.23;13.47;;;;;;;;;;5003300;28;20590;-60
2023/04/29 11:34:12;;;;;;;91.13;14.07;;;;;;;;;;5027656;28;20706;-60
2023/04/29 11:36:39;;;;;;;153.17;18.43;;;;;;;;;;5012712;28;20730;-59
2023/04/29 11:39:06;;;;;;;34.07;11.47;;;;;;;;;;5021060;28;20878;-60
2023/04/29 11:41:36;;;;;;;18.77;11.50;;;;;;;;;;5025110;28;20187;-60
2023/04/29 11:44:05;;;;;;;17.30;10.70;;;;;;;;;;5029536;28;20215;-60
2023/04/29 11:46:32;;;;;;;21.57;10.20;;;;;;;;;;5023481;28;20196;-60
2023/04/29 11:49:00;;;;;;;18.50;10.63;;;;;;;;;;5029517;28;20222;-61
2023/04/29 11:51:28;;;;;;;20.97;10.70;;;;;;;;;;5033482;28;20633;-60
2023/04/29 11:53:59;;;;;;;17.73;10.83;;;;;;;;;;5033041;28;20223;-60
2023/04/29 11:56:25;;;;;;;13.67;9.97;;;;;;;;;;5033185;28;20215;-60
2023/04/29 11:58:54;;;;;;;13.43;9.67;;;;;;;;;;5033716;28;20589;-60
2023/04/29 12:01:22;;;;;;;14.57;10.40;;;;;;;;;;5033755;28;20200;-60
2023/04/29 12:03:49;;;;;;;13.73;9.77;;;;;;;;;;5014534;28;20610;-60
2023/04/29 12:06:16;;;;;;;16.73;9.70;;;;;;;;;;5033318;28;20187;-60
2023/04/29 12:08:45;;;;;;;15.27;9.23;;;;;;;;;;5033218;28;20318;-60
2023/04/29 12:11:12;;;;;;;10.07;7.93;;;;;;;;;;5015789;28;20199;-60
2023/04/29 12:13:39;;;;;;;10.93;7.17;;;;;;;;;;5033214;28;20203;-59
2023/04/29 12:16:09;;;;;;;19.43;7.43;;;;;;;;;;5032977;28;20321;-59
2023/04/29 12:18:37;;;;;;;12.10;6.27;;;;;;;;;;5018386;28;20223;-59
2023/04/29 12:21:06;;;;;;;73.00;10.83;;;;;;;;;;5013482;28;20204;-59
2023/04/29 12:23:36;;;;;;;232.20;21.57;;;;;;;;;;5004602;28;20231;-60
2023/04/29 12:26:03;;;;;;;17.60;6.40;;;;;;;;;;5006614;28;20202;-59
2023/04/29 12:28:30;;;;;;;8.13;5.50;;;;;;;;;;5001712;28;20231;-59
2023/04/29 12:30:57;;;;;;;17.17;6.90;;;;;;;;;;5002250;28;20200;-60
2023/04/29 12:33:25;;;;;;;13.03;7.17;;;;;;;;;;4993372;28;20283;-59
2023/04/29 12:35:56;;;;;;;13.90;8.13;;;;;;;;;;5004812;28;20200;-60
2023/04/29 12:38:26;;;;;;;9.67;5.40;;;;;;;;;;4989263;28;20649;-59
2023/04/29 12:40:53;;;;;;;8.53;5.40;;;;;;;;;;5002370;28;20196;-60
2023/04/29 12:43:50;;;;;;;8.80;5.87;;;;;;;;;;4997384;28;20197;-60
2023/04/29 12:46:18;;;;;;;10.33;5.77;;;;;;;;;;4992294;28;20204;-60
2023/04/29 12:48:45;;;;;;;11.87;5.90;;;;;;;;;;5005797;28;20291;-60
2023/04/29 12:51:11;;;;;;;16.70;6.53;;;;;;;;;;5004886;28;20192;-60
2023/04/29 12:53:39;;;;;;;30.53;8.27;;;;;;;;;;4997678;28;20189;-60
2023/04/29 12:56:07;;;;;;;29.27;8.30;;;;;;;;;;4988607;28;20225;-60
2023/04/29 12:58:34;;;;;;;11.30;6.50;;;;;;;;;;4979217;28;20190;-60
2023/04/29 13:01:05;;;;;;;11.50;6.03;;;;;;;;;;5008388;28;20568;-60
2023/04/29 13:03:32;;;;;;;8.57;6.50;;;;;;;;;;5004574;28;20196;-60
2023/04/29 13:06:01;;;;;;;7.83;5.50;;;;;;;;;;4997602;28;20332;-60
2023/04/29 13:08:29;;;;;;;8.63;5.57;;;;;;;;;;4994747;28;20691;-61
2023/04/29 13:10:55;;;;;;;8.57;6.23;;;;;;;;;;4983049;28;20283;-60
2023/04/29 13:13:22;;;;;;;14.67;6.93;;;;;;;;;;5005084;28;20648;-60
2023/04/29 13:15:52;;;;;;;10.37;7.20;;;;;;;;;;5005226;28;20242;-60
2023/04/29 13:18:23;;;;;;;10.57;7.40;;;;;;;;;;5018893;28;20208;-60
2023/04/29 13:20:50;;;;;;;12.53;7.30;;;;;;;;;;5035717;28;20245;-60
2023/04/29 13:23:18;;;;;;;9.20;6.47;;;;;;;;;;5037589;28;20254;-60
2023/04/29 13:25:45;;;;;;;12.87;7.57;;;;;;;;;;5035796;28;20650;-60
2023/04/29 13:28:12;;;;;;;12.77;6.60;;;;;;;;;;5037482;28;20261;-60
2023/04/29 13:30:42;;;;;;;12.07;6.80;;;;;;;;;;5023189;28;20730;-59
2023/04/29 13:33:09;;;;;;;10.33;7.90;;;;;;;;;;5036502;28;20281;-59
2023/04/29 13:35:40;;;;;;;11.43;7.87;;;;;;;;;;5047341;28;20191;-59
2023/04/29 13:38:07;;;;;;;10.40;6.63;;;;;;;;;;5037331;28;20196;-59
2023/04/29 13:40:34;;;;;;;9.47;6.50;;;;;;;;;;5036159;28;20198;-59
2023/04/29 13:43:08;;;;;;;8.00;6.30;;;;;;;;;;5032093;28;20196;-58
2023/04/29 13:45:39;;;;;;;16.67;7.20;;;;;;;;;;5033425;28;20619;-58
2023/04/29 13:48:11;;;;;;;12.07;6.97;;;;;;;;;;5039278;28;20199;-59
2023/04/29 13:51:00;;;;;;;12.17;7.47;;;;;;;;;;5029511;28;20193;-59
2023/04/29 13:53:31;;;;;;;9.77;7.37;;;;;;;;;;5032046;28;20218;-59
2023/04/29 13:56:19;;;;;;;11.30;6.47;;;;;;;;;;5032065;28;20203;-59
2023/04/29 13:58:49;;;;;;;17.10;8.43;;;;;;;;;;5016955;28;20179;-59
2023/04/29 14:01:21;;;;;;;13.57;7.50;;;;;;;;;;5046525;28;20195;-59
2023/04/29 14:03:50;;;;;;;11.23;7.10;;;;;;;;;;5034826;28;20202;-59
2023/04/29 14:06:19;;;;;;;13.00;6.73;;;;;;;;;;5035259;28;20199;-59
2023/04/29 14:08:46;;;;;;;18.37;7.73;;;;;;;;;;5034675;28;20208;-59
2023/04/29 14:11:13;;;;;;;17.20;7.67;;;;;;;;;;5025533;28;20669;-59
2023/04/29 14:13:40;;;;;;;12.03;8.00;;;;;;;;;;5044503;28;20198;-59
2023/04/29 14:16:08;;;;;;;22.87;8.20;;;;;;;;;;5037262;28;20234;-59
2023/04/29 14:18:35;;;;;;;15.80;8.33;;;;;;;;;;5035709;28;20226;-60
2023/04/29 14:21:02;;;;;;;14.20;7.50;;;;;;;;;;5031191;28;20222;-59
2023/04/29 14:23:29;;;;;;;11.23;7.63;;;;;;;;;;5038594;28;20322;-59
2023/04/29 14:25:56;;;;;;;12.43;7.73;;;;;;;;;;5017965;28;20687;-60
2023/04/29 14:28:43;;;;;;;13.80;7.60;;;;;;;;;;5018261;28;20211;-59
2023/04/29 14:31:12;;;;;;;13.73;8.10;;;;;;;;;;5012905;28;20230;-59
2023/04/29 14:33:40;;;;;;;18.63;7.40;;;;;;;;;;5012158;28;20200;-59
2023/04/29 14:36:07;;;;;;;12.60;7.67;;;;;;;;;;5020571;28;20198;-59
2023/04/29 14:38:34;;;;;;;12.20;7.57;;;;;;;;;;4998061;28;20188;-59
2023/04/29 14:41:04;;;;;;;11.63;6.87;;;;;;;;;;5016695;28;20191;-60
2023/04/29 14:43:31;;;;;;;11.57;6.93;;;;;;;;;;5013558;28;20246;-59
2023/04/29 14:45:57;;;;;;;10.37;7.07;;;;;;;;;;5011133;28;20646;-59
2023/04/29 14:48:27;;;;;;;13.10;8.10;;;;;;;;;;5019516;28;20242;-59
2023/04/29 14:50:56;;;;;;;8.27;6.63;;;;;;;;;;5008797;28;20192;-59
2023/04/29 14:53:23;;;;;;;13.83;7.70;;;;;;;;;;5008143;28;20647;-59
2023/04/29 14:55:51;;;;;;;12.80;7.27;;;;;;;;;;5002750;28;20207;-59
2023/04/29 14:58:18;;;;;;;11.90;7.00;;;;;;;;;;5010443;28;20278;-60
2023/04/29 15:00:44;;;;;;;9.70;7.10;;;;;;;;;;5010733;28;20235;-59
2023/04/29 15:03:15;;;;;;;10.70;7.00;;;;;;;;;;5010606;28;20238;-59
2023/04/29 15:05:49;;;;;;;11.27;7.67;;;;;;;;;;5011035;28;20294;-59
2023/04/29 15:08:17;;;;;;;12.67;7.57;;;;;;;;;;5011183;28;20198;-59
2023/04/29 15:10:46;;;;;;;11.73;7.83;;;;;;;;;;5006728;28;20181;-59
2023/04/29 15:13:16;;;;;;;11.80;7.30;;;;;;;;;;5001995;28;20204;-59